Time;durP1;ratioP1;P1;durP2;ratioP2;P2;SDS_P1;SDS_P2;PMS_P1;PMS_P2;Temp;Humidity;BMP_temperature;BMP_pressure;BME280_temperature;BME280_humidity;BME280_pressure;Samples;Min_cycle;Max_cycle;Signal;HPM_P1;HPM_P2
2022/05/20 05:00:34;;;;;;;;;;;;;;;22.51;100.00;99387.78;5962901;23;19968;31
2022/05/20 05:03:02;;;;;;;;;;;;;;;22.95;100.00;99397.47;4825347;29;19989;-71
2022/05/20 05:05:29;;;;;;;;;;;;;;;23.52;100.00;99393.63;5085174;23;19971;-71
2022/05/20 05:07:57;;;;;;;;;;;;;;;23.96;100.00;99401.06;4885726;29;19951;-71
2022/05/20 05:10:27;;;;;;;;;;;;;;;24.23;100.00;99408.31;4878323;29;20243;-71
2022/05/20 05:12:54;;;;;;;;;;;;;;;24.49;98.92;99409.78;4879644;29;19952;-71
2022/05/20 05:15:21;;;;;;;;;;;;;;;24.88;96.84;99408.31;4867971;29;20349;-71
2022/05/20 05:20:34;;;;;;;;;;;;;;;25.32;91.87;99406.97;4885429;29;20338;-71
2022/05/20 05:23:02;;;;;;;;;;;;;;;25.59;92.17;99407.09;4886141;29;19950;-71
2022/05/20 05:25:32;;;;;;;;;;;;;;;25.46;90.34;99406.41;4885534;29;19970;-71
2022/05/20 05:27:59;;;;;;;;;;;;;;;25.23;91.86;99406.94;4886197;29;19958;-71
2022/05/20 05:30:27;;;;;;;;;;;;;;;24.82;93.11;99410.22;4886021;29;19949;-71
2022/05/20 05:32:54;;;;;;;;;;;;;;;24.53;93.15;99413.31;4886132;29;19959;-70
2022/05/20 05:35:24;;;;;;;;;;;;;;;24.37;94.76;99417.16;4885179;29;20269;-70
2022/05/20 05:37:51;;;;;;;;;;;;;;;24.17;96.84;99408.09;4883596;29;19951;-70
2022/05/20 05:40:20;;;;;;;;;;;;;;;23.92;98.19;99411.00;4884812;29;19959;-70
2022/05/20 05:42:48;;;;;;;;;;;;;;;23.83;100.00;99420.28;4886006;29;19957;-71
2022/05/20 05:45:17;;;;;;;;;;;;;;;23.82;100.00;99415.81;4883633;29;19968;-71
2022/05/20 05:47:50;;;;;;;;;;;;;;;23.71;100.00;99411.75;4877194;29;19954;-71
2022/05/20 05:50:17;;;;;;;;;;;;;;;23.73;100.00;99415.75;4882387;29;19957;-71
2022/05/20 05:52:45;;;;;;;;;;;;;;;23.56;100.00;99410.63;4881553;29;19952;-70
2022/05/20 05:55:12;;;;;;;;;;;;;;;23.47;100.00;99412.09;4888038;29;19951;-70
2022/05/20 05:57:39;;;;;;;;;;;;;;;23.43;100.00;99410.63;4884274;29;20002;-71
2022/05/20 06:00:07;;;;;;;;;;;;;;;23.48;100.00;99410.06;4865144;29;19957;-71
2022/05/20 06:02:38;;;;;;;;;;;;;;;23.46;100.00;99409.72;4880002;29;19950;-71
2022/05/20 06:05:05;;;;;;;;;;;;;;;23.59;100.00;99410.50;4882256;29;19972;-71
2022/05/20 06:07:32;;;;;;;;;;;;;;;23.58;100.00;99410.97;4882242;29;20366;-71
2022/05/20 06:10:00;;;;;;;;;;;;;;;23.57;100.00;99412.22;4880877;29;20234;-71
2022/05/20 06:12:27;;;;;;;;;;;;;;;23.65;100.00;99417.22;4879390;29;19958;-71
2022/05/20 06:14:55;;;;;;;;;;;;;;;23.68;100.00;99422.03;4879838;29;19951;-71
2022/05/20 06:17:22;;;;;;;;;;;;;;;23.63;100.00;99421.81;4881012;29;19954;-71
2022/05/20 06:19:49;;;;;;;;;;;;;;;23.66;100.00;99418.84;4883987;29;20514;-72
2022/05/20 06:22:16;;;;;;;;;;;;;;;23.66;100.00;99421.69;4885129;29;19951;-71
2022/05/20 06:24:43;;;;;;;;;;;;;;;23.65;100.00;99425.00;4884255;29;19975;-71
2022/05/20 06:27:13;;;;;;;;;;;;;;;23.44;100.00;99418.75;4883215;29;20370;-71
2022/05/20 06:29:40;;;;;;;;;;;;;;;23.34;100.00;99422.72;4884417;29;19949;-71
2022/05/20 06:32:07;;;;;;;;;;;;;;;23.36;100.00;99425.94;4884247;29;19957;-71
2022/05/20 06:40:11;;;;;;;;;;;;;;;23.46;100.00;99432.56;4902511;29;19955;-71
2022/05/20 06:42:40;;;;;;;;;;;;;;;23.50;100.00;99436.91;4902996;29;19952;-71
2022/05/20 06:45:08;;;;;;;;;;;;;;;23.56;100.00;99427.75;4886199;29;20041;-71
2022/05/20 06:47:35;;;;;;;;;;;;;;;23.57;100.00;99435.06;4902690;29;19950;-71
2022/05/20 06:50:03;;;;;;;;;;;;;;;23.59;100.00;99433.38;4902062;29;19981;-71
2022/05/20 06:52:30;;;;;;;;;;;;;;;23.64;100.00;99435.63;4903524;29;20341;-71
2022/05/20 06:55:04;;;;;;;;;;;;;;;23.65;100.00;99437.22;4903311;29;19955;-71
2022/05/20 06:57:36;;;;;;;;;;;;;;;23.75;100.00;99433.22;4895870;29;19956;-71
2022/05/20 07:00:03;;;;;;;;;;;;;;;23.78;100.00;99434.34;4884995;29;19953;-71
2022/05/20 07:02:30;;;;;;;;;;;;;;;23.83;100.00;99439.50;4884637;29;20237;-71
2022/05/20 07:04:57;;;;;;;;;;;;;;;23.95;100.00;99435.81;4884393;29;19974;-71
2022/05/20 07:07:25;;;;;;;;;;;;;;;24.06;100.00;99441.97;4898779;29;20010;-71
2022/05/20 07:09:52;;;;;;;;;;;;;;;24.17;100.00;99442.41;4902948;29;19952;-71
2022/05/20 07:12:19;;;;;;;;;;;;;;;24.18;100.00;99435.44;4895115;29;19950;-71
2022/05/20 07:14:46;;;;;;;;;;;;;;;24.35;100.00;99427.47;4902793;29;20215;-71
2022/05/20 07:17:17;;;;;;;;;;;;;;;24.44;100.00;99438.97;4902341;29;19953;-71
2022/05/20 07:19:44;;;;;;;;;;;;;;;24.49;100.00;99436.34;4902206;29;19984;-71
2022/05/20 07:22:12;;;;;;;;;;;;;;;24.47;100.00;99432.34;4901961;29;19957;-71
2022/05/20 07:24:39;;;;;;;;;;;;;;;24.55;100.00;99442.25;4902329;29;19974;-71
2022/05/20 07:27:07;;;;;;;;;;;;;;;24.50;100.00;99434.28;4901898;29;20244;-71
2022/05/20 07:29:34;;;;;;;;;;;;;;;24.68;100.00;99437.25;4901821;29;20419;-71
2022/05/20 07:32:01;;;;;;;;;;;;;;;24.86;100.00;99425.97;4902030;29;20237;-71
2022/05/20 07:34:28;;;;;;;;;;;;;;;24.93;100.00;99433.47;4901731;29;19950;-71
2022/05/20 07:36:56;;;;;;;;;;;;;;;24.93;100.00;99434.28;4902241;29;19954;-71
2022/05/20 07:39:23;;;;;;;;;;;;;;;24.91;100.00;99430.28;4901861;29;19949;-71
2022/05/20 07:41:51;;;;;;;;;;;;;;;25.01;100.00;99427.03;4901988;29;19952;-71
2022/05/20 07:44:19;;;;;;;;;;;;;;;25.09;100.00;99421.81;4902083;29;20356;-71
2022/05/20 07:46:46;;;;;;;;;;;;;;;25.20;100.00;99425.84;4901691;29;19980;-71
2022/05/20 07:49:14;;;;;;;;;;;;;;;25.30;100.00;99424.63;4902292;29;19951;-71
2022/05/20 07:51:42;;;;;;;;;;;;;;;25.46;100.00;99425.69;4900781;29;19954;-71
2022/05/20 07:54:12;;;;;;;;;;;;;;;25.61;100.00;99430.31;4900912;29;19993;-71
2022/05/20 07:56:42;;;;;;;;;;;;;;;25.59;100.00;99427.16;4902037;29;19946;-71
2022/05/20 07:59:11;;;;;;;;;;;;;;;25.73;100.00;99423.69;4901079;29;19949;-71
2022/05/20 08:01:41;;;;;;;;;;;;;;;25.83;100.00;99421.63;4901921;29;19959;-71
2022/05/20 08:07:13;;;;;;;;;;;;;;;25.88;100.00;99416.06;4901671;29;19949;-71
2022/05/20 08:09:40;;;;;;;;;;;;;;;25.92;100.00;99415.94;4901835;29;20329;-71
2022/05/20 08:12:08;;;;;;;;;;;;;;;25.93;100.00;99414.66;4885474;29;19956;-71
2022/05/20 08:14:40;;;;;;;;;;;;;;;25.92;100.00;99416.69;4902044;29;19957;-71
2022/05/20 08:17:08;;;;;;;;;;;;;;;25.99;100.00;99418.50;4901768;29;19996;-71
2022/05/20 08:19:35;;;;;;;;;;;;;;;26.01;100.00;99415.94;4901617;29;19948;-71
2022/05/20 08:22:02;;;;;;;;;;;;;;;25.90;100.00;99407.78;4901725;29;19959;-71
2022/05/20 08:24:30;;;;;;;;;;;;;;;25.86;100.00;99417.81;4904166;29;19948;-70
2022/05/20 08:26:58;;;;;;;;;;;;;;;25.89;100.00;99408.28;4905525;29;19964;-71
2022/05/20 08:29:25;;;;;;;;;;;;;;;25.89;100.00;99400.47;4888872;29;19952;-71
2022/05/20 08:31:52;;;;;;;;;;;;;;;25.76;100.00;99404.75;4905400;29;19953;-71
2022/05/20 08:34:20;;;;;;;;;;;;;;;25.87;100.00;99405.88;4897362;29;19949;-71
2022/05/20 08:36:47;;;;;;;;;;;;;;;25.73;100.00;99399.94;4905596;29;19945;-71
2022/05/20 08:39:14;;;;;;;;;;;;;;;25.69;100.00;99396.44;4905351;29;20242;-71
2022/05/20 08:41:45;;;;;;;;;;;;;;;25.75;100.00;99394.56;4905380;29;19979;-70
2022/05/20 08:44:15;;;;;;;;;;;;;;;25.65;100.00;99395.81;4905928;29;19940;-69
2022/05/20 08:46:43;;;;;;;;;;;;;;;25.70;100.00;99393.09;4904941;29;19974;-69
2022/05/20 08:49:12;;;;;;;;;;;;;;;25.72;100.00;99398.38;4905473;29;19949;-69
2022/05/20 08:51:41;;;;;;;;;;;;;;;25.73;100.00;99391.34;4904470;29;19946;-70
2022/05/20 08:54:10;;;;;;;;;;;;;;;25.69;100.00;99393.59;4905279;29;19957;-70
2022/05/20 08:56:38;;;;;;;;;;;;;;;25.82;100.00;99392.16;4904709;29;19956;-70
2022/05/20 08:59:11;;;;;;;;;;;;;;;25.82;100.00;99400.00;4904440;29;19952;-70
2022/05/20 09:01:40;;;;;;;;;;;;;;;25.82;100.00;99397.13;4888103;29;20327;-70
2022/05/20 09:04:09;;;;;;;;;;;;;;;25.95;100.00;99400.63;4886380;29;19950;-70
2022/05/20 09:06:38;;;;;;;;;;;;;;;25.94;100.00;99397.00;4886500;29;19975;-70
2022/05/20 09:09:10;;;;;;;;;;;;;;;25.96;100.00;99396.50;4886681;29;19956;-71
2022/05/20 09:11:39;;;;;;;;;;;;;;;25.85;100.00;99393.28;4886384;29;20337;-70
2022/05/20 09:17:07;;;;;;;;;;;;;;;26.01;100.00;99395.88;4885504;29;20326;-70
2022/05/20 09:19:34;;;;;;;;;;;;;;;25.86;100.00;99389.97;4886088;29;19952;-70
2022/05/20 09:22:06;;;;;;;;;;;;;;;25.53;100.00;99394.66;4885406;29;19956;-71
2022/05/20 09:24:39;;;;;;;;;;;;;;;25.76;100.00;99384.69;4886364;29;19947;-70
2022/05/20 09:27:08;;;;;;;;;;;;;;;25.76;100.00;99387.53;4886243;29;19969;-70
2022/05/20 09:29:38;;;;;;;;;;;;;;;25.77;100.00;99381.34;4886179;29;20242;-70
2022/05/20 09:32:19;;;;;;;;;;;;;;;25.83;100.00;99382.31;4885895;29;20353;-70
2022/05/20 09:34:57;;;;;;;;;;;;;;;26.00;100.00;99379.94;4899355;29;19948;-70
2022/05/20 09:37:27;;;;;;;;;;;;;;;25.85;100.00;99379.75;4903823;29;19968;-71
2022/05/20 09:39:54;;;;;;;;;;;;;;;25.95;100.00;99383.44;4904057;29;19947;-70
2022/05/20 09:42:26;;;;;;;;;;;;;;;25.72;100.00;99376.25;4904264;29;19948;-69
2022/05/20 09:44:56;;;;;;;;;;;;;;;25.90;100.00;99370.53;4903917;29;19947;-69
2022/05/20 09:47:32;;;;;;;;;;;;;;;26.02;100.00;99372.44;4891588;29;20002;-70
2022/05/20 09:50:26;;;;;;;;;;;;;;;26.07;100.00;99360.34;4885324;29;19955;-70
2022/05/20 09:52:53;;;;;;;;;;;;;;;26.00;100.00;99362.75;4885568;29;19956;-70
2022/05/20 09:55:25;;;;;;;;;;;;;;;25.98;100.00;99371.03;4885759;29;19949;-70
2022/05/20 09:57:54;;;;;;;;;;;;;;;25.69;100.00;99362.88;4885545;29;19948;-70
2022/05/20 10:00:27;;;;;;;;;;;;;;;25.86;100.00;99358.44;4884910;29;19957;-69
2022/05/20 10:03:16;;;;;;;;;;;;;;;26.00;100.00;99359.88;4885227;29;19950;-69
2022/05/20 10:05:46;;;;;;;;;;;;;;;26.03;100.00;99359.72;4884952;29;19977;-69
2022/05/20 10:08:32;;;;;;;;;;;;;;;26.12;100.00;99356.06;4884599;29;19956;-69
2022/05/20 10:11:02;;;;;;;;;;;;;;;26.19;100.00;99346.38;4885197;29;19959;-70
2022/05/20 10:13:35;;;;;;;;;;;;;;;26.26;100.00;99355.47;4885130;29;19948;-69
2022/05/20 10:16:17;;;;;;;;;;;;;;;26.32;100.00;99353.53;4884700;29;19959;-70
2022/05/20 10:18:54;;;;;;;;;;;;;;;26.38;100.00;99348.75;4885041;29;20183;-70
2022/05/20 10:21:40;;;;;;;;;;;;;;;26.56;100.00;99345.84;4902488;29;19979;-70
2022/05/20 10:24:20;;;;;;;;;;;;;;;26.51;100.00;99346.50;4887172;29;19948;-70
2022/05/20 10:26:55;;;;;;;;;;;;;;;26.59;100.00;99346.94;4903693;29;19963;-70
2022/05/20 10:32:40;;;;;;;;;;;;;;;26.48;100.00;99352.41;4903816;29;19956;-70
2022/05/20 10:35:10;;;;;;;;;;;;;;;25.96;100.00;99344.91;4903265;29;19957;-70
2022/05/20 10:37:37;;;;;;;;;;;;;;;26.06;100.00;99344.44;4886388;29;20238;-70
2022/05/20 10:40:20;;;;;;;;;;;;;;;26.27;100.00;99336.97;4890342;29;19951;-70
2022/05/20 10:42:56;;;;;;;;;;;;;;;26.40;100.00;99326.13;4884665;29;19950;-70
2022/05/20 10:48:36;;;;;;;;;;;;;;;26.45;100.00;99325.47;4884234;29;20373;-70
2022/05/20 10:51:27;;;;;;;;;;;;;;;26.47;100.00;99322.91;4884063;29;20443;-70
2022/05/20 10:53:54;;;;;;;;;;;;;;;26.63;100.00;99325.41;4876982;29;19950;-70
2022/05/20 10:56:30;;;;;;;;;;;;;;;26.49;100.00;99328.97;4883463;29;19955;-70
2022/05/20 10:58:57;;;;;;;;;;;;;;;26.58;100.00;99320.34;4884418;29;19947;-70
2022/05/20 11:01:43;;;;;;;;;;;;;;;26.37;100.00;99315.59;4884838;29;19951;-69
2022/05/20 11:04:17;;;;;;;;;;;;;;;26.30;100.00;99318.00;4884376;29;19951;-70
2022/05/20 11:06:47;;;;;;;;;;;;;;;26.42;100.00;99314.97;4884208;29;19977;-70
2022/05/20 11:09:17;;;;;;;;;;;;;;;26.43;100.00;99322.31;4884143;29;19951;-70
2022/05/20 11:11:53;;;;;;;;;;;;;;;26.19;100.00;99315.63;4883841;29;19955;-69
2022/05/20 11:14:39;;;;;;;;;;;;;;;26.43;100.00;99315.75;4893985;29;19958;-69
2022/05/20 11:17:12;;;;;;;;;;;;;;;26.43;100.00;99315.75;4902479;29;20358;-69
2022/05/20 11:19:55;;;;;;;;;;;;;;;26.28;100.00;99306.22;4896254;29;19951;-70
2022/05/20 11:22:36;;;;;;;;;;;;;;;26.31;100.00;99302.41;4882973;29;19961;-70
2022/05/20 11:25:11;;;;;;;;;;;;;;;26.22;100.00;99302.38;4883715;29;19950;-70
2022/05/20 11:27:48;;;;;;;;;;;;;;;26.33;100.00;99296.97;4883345;29;19966;-70
2022/05/20 11:30:24;;;;;;;;;;;;;;;26.17;100.00;99295.22;4883452;29;20247;-70
2022/05/20 11:32:51;;;;;;;;;;;;;;;26.06;100.00;99289.97;4883751;29;20210;-69
2022/05/20 11:35:27;;;;;;;;;;;;;;;26.12;100.00;99290.13;4883569;29;20323;-70
2022/05/20 11:38:07;;;;;;;;;;;;;;;26.14;100.00;99287.59;4882623;29;19951;-70
2022/05/20 11:40:40;;;;;;;;;;;;;;;26.27;100.00;99285.34;4894680;29;19956;-70
2022/05/20 11:43:07;;;;;;;;;;;;;;;26.29;100.00;99284.88;4883636;29;19978;-70
2022/05/20 11:45:47;;;;;;;;;;;;;;;26.25;100.00;99278.50;4881834;29;19947;-69
2022/05/20 11:48:23;;;;;;;;;;;;;;;26.40;100.00;99277.38;4882502;29;20396;-69
2022/05/20 11:51:16;;;;;;;;;;;;;;;26.51;100.00;99266.16;4883321;29;19957;-69
2022/05/20 11:53:50;;;;;;;;;;;;;;;26.49;100.00;99268.72;4879571;29;19948;-70
2022/05/20 11:56:21;;;;;;;;;;;;;;;26.56;100.00;99268.38;4883666;29;20329;-70
2022/05/20 11:59:12;;;;;;;;;;;;;;;26.41;100.00;99263.81;4881885;29;19957;-69
2022/05/20 12:01:40;;;;;;;;;;;;;;;26.49;100.00;99254.38;4883339;29;19951;-69
2022/05/20 12:04:07;;;;;;;;;;;;;;;26.38;100.00;99253.31;4882870;29;20245;-69
2022/05/20 12:06:44;;;;;;;;;;;;;;;26.24;100.00;99254.75;4887903;29;19946;-70
2022/05/20 12:09:27;;;;;;;;;;;;;;;26.38;100.00;99256.19;4901900;29;19959;-70
2022/05/20 12:12:13;;;;;;;;;;;;;;;26.44;100.00;99243.56;4901906;29;19948;-70
2022/05/20 12:14:59;;;;;;;;;;;;;;;26.64;100.00;99240.13;4901949;29;19979;-70
2022/05/20 12:17:29;;;;;;;;;;;;;;;26.60;100.00;99237.47;4901909;29;20332;-69
2022/05/20 12:25:57;;;;;;;;;;;;;;;26.78;100.00;99228.00;4901954;29;19978;-69
2022/05/20 12:28:24;;;;;;;;;;;;;;;26.64;100.00;99218.00;4901314;29;19972;-69
2022/05/20 12:31:11;;;;;;;;;;;;;;;26.76;100.00;99221.16;4902048;29;19950;-70
2022/05/20 12:33:57;;;;;;;;;;;;;;;26.85;100.00;99218.25;4901750;29;19979;-70
2022/05/20 12:36:28;;;;;;;;;;;;;;;26.87;100.00;99215.69;4902134;29;19942;-70
2022/05/20 12:39:16;;;;;;;;;;;;;;;26.87;100.00;99210.75;4901354;29;19944;-70
2022/05/20 12:41:44;;;;;;;;;;;;;;;26.93;100.00;99205.13;4901261;29;19957;-70
2022/05/20 12:44:17;;;;;;;;;;;;;;;26.89;100.00;99198.75;4901515;29;19952;-70
2022/05/20 12:47:03;;;;;;;;;;;;;;;27.01;100.00;99195.66;4901431;29;19954;-70
2022/05/20 12:49:36;;;;;;;;;;;;;;;26.95;87.53;99189.00;4901963;29;19955;-70
2022/05/20 12:52:15;;;;;;;;;;;;;;;27.17;79.23;99205.91;4901575;29;19955;-70
2022/05/20 12:54:47;;;;;;;;;;;;;;;27.21;77.12;99192.19;4900618;29;19956;-70
2022/05/20 12:57:15;;;;;;;;;;;;;;;27.27;79.05;99187.34;4902020;29;19957;-70
2022/05/20 12:59:43;;;;;;;;;;;;;;;27.29;75.08;99188.44;4901197;29;19954;-70
2022/05/20 13:02:14;;;;;;;;;;;;;;;27.35;73.74;99192.22;4901583;29;19981;-69
2022/05/20 13:04:49;;;;;;;;;;;;;;;27.45;75.17;99183.56;4901526;29;19977;-69
2022/05/20 13:07:17;;;;;;;;;;;;;;;27.59;69.20;99186.47;4901110;29;20357;-70
2022/05/20 13:09:45;;;;;;;;;;;;;;;27.61;61.26;99183.13;4902986;29;19948;-70
2022/05/20 13:12:18;;;;;;;;;;;;;;;27.65;69.98;99177.97;4905022;29;19953;-69
2022/05/20 13:14:53;;;;;;;;;;;;;;;27.70;61.55;99180.16;4905185;29;19950;-70
2022/05/20 13:17:21;;;;;;;;;;;;;;;27.71;67.91;99182.53;4905027;29;19955;-70
2022/05/20 13:19:50;;;;;;;;;;;;;;;27.75;64.66;99179.47;4904989;29;19952;-70
2022/05/20 13:22:22;;;;;;;;;;;;;;;27.78;61.17;99181.38;4904572;29;19951;-70
2022/05/20 13:25:00;;;;;;;;;;;;;;;27.81;57.72;99166.78;4904563;29;19983;-70
2022/05/20 13:27:28;;;;;;;;;;;;;;;27.81;62.51;99169.66;4904613;29;19983;-70
2022/05/20 13:30:07;;;;;;;;;;;;;;;27.66;66.74;99157.34;4904532;29;19948;-70
2022/05/20 13:32:34;;;;;;;;;;;;;;;27.79;62.63;99169.38;4904591;29;19955;-70
2022/05/20 13:35:04;;;;;;;;;;;;;;;27.86;68.75;99163.22;4904385;29;20325;-70
2022/05/20 13:37:36;;;;;;;;;;;;;;;27.86;62.76;99156.69;4904132;29;19952;-70
2022/05/20 13:40:17;;;;;;;;;;;;;;;27.79;61.48;99145.56;4903699;29;19958;-70
2022/05/20 13:42:52;;;;;;;;;;;;;;;27.70;66.24;99149.34;4904484;29;19951;-70
2022/05/20 13:49:13;;;;;;;;;;;;;;;27.73;60.25;99159.06;4904678;29;19972;-69
2022/05/20 13:51:09;;;;;;;;;;;;;;;27.78;66.81;99146.88;4904024;29;19963;-70
2022/05/20 13:53:38;;;;;;;;;;;;;;;27.82;59.29;99151.16;4903635;29;19957;-69
2022/05/20 13:56:07;;;;;;;;;;;;;;;27.76;58.27;99141.59;4904389;29;19958;-69
2022/05/20 13:58:35;;;;;;;;;;;;;;;27.72;64.42;99134.47;4903936;29;19958;-69
2022/05/20 14:01:03;;;;;;;;;;;;;;;27.69;57.78;99136.25;4903969;29;19955;-70
2022/05/20 14:03:33;;;;;;;;;;;;;;;27.65;57.39;99129.91;4903814;29;19948;-70
2022/05/20 14:06:03;;;;;;;;;;;;;;;27.71;57.58;99127.94;4904584;29;20377;-70
2022/05/20 14:08:31;;;;;;;;;;;;;;;27.60;59.30;99121.19;4903660;29;19968;-70
2022/05/20 14:11:01;;;;;;;;;;;;;;;27.60;56.99;99119.13;4904095;29;19959;-70
2022/05/20 14:13:36;;;;;;;;;;;;;;;27.50;61.95;99117.59;4901908;29;19955;-70
2022/05/20 14:16:17;;;;;;;;;;;;;;;27.53;65.34;99110.88;4881814;29;20237;-71
2022/05/20 14:18:49;;;;;;;;;;;;;;;27.58;62.37;99115.94;4884760;29;19947;-70
2022/05/20 14:21:20;;;;;;;;;;;;;;;27.54;58.72;99106.69;4883343;29;19952;-70
2022/05/20 14:23:54;;;;;;;;;;;;;;;27.57;57.94;99102.06;4884480;29;19979;-70
2022/05/20 14:26:36;;;;;;;;;;;;;;;27.53;56.46;99105.13;4884497;29;19947;-69
2022/05/20 14:29:03;;;;;;;;;;;;;;;27.57;60.48;99094.22;4884290;29;19972;-69
2022/05/20 14:31:43;;;;;;;;;;;;;;;27.62;53.48;99095.63;4884240;29;19954;-69
2022/05/20 14:34:25;;;;;;;;;;;;;;;27.60;55.87;99084.63;4884954;29;19949;-69
2022/05/20 14:36:54;;;;;;;;;;;;;;;27.52;56.79;99089.16;4878948;29;19946;-69
2022/05/20 14:39:23;;;;;;;;;;;;;;;27.51;55.67;99078.97;4865777;29;20236;-70
2022/05/20 14:42:02;;;;;;;;;;;;;;;27.48;53.21;99079.16;4866075;29;19955;-69
2022/05/20 14:44:30;;;;;;;;;;;;;;;27.42;50.37;99092.63;4884371;29;19951;-69
2022/05/20 14:47:23;;;;;;;;;;;;;;;27.36;51.57;99089.63;4884937;29;19958;-69
2022/05/20 14:49:53;;;;;;;;;;;;;;;27.30;45.19;99080.91;4849881;29;20226;-70
2022/05/20 14:52:24;;;;;;;;;;;;;;;27.27;46.46;99076.13;4880346;29;20257;-70
2022/05/20 14:54:51;;;;;;;;;;;;;;;27.26;46.16;99074.56;4881354;29;19958;-70
2022/05/20 14:57:26;;;;;;;;;;;;;;;27.18;50.37;99066.81;4883166;29;20295;-70
2022/05/20 15:00:11;;;;;;;;;;;;;;;27.26;48.62;99070.88;4884457;29;19952;-70
2022/05/20 15:02:39;;;;;;;;;;;;;;;27.25;51.78;99060.69;4872212;29;19960;-70
2022/05/20 15:05:07;;;;;;;;;;;;;;;27.15;47.61;99062.03;4882835;29;19976;-70
2022/05/20 15:07:34;;;;;;;;;;;;;;;27.11;47.34;99065.13;4883334;29;19950;-70
2022/05/20 15:10:07;;;;;;;;;;;;;;;27.01;46.62;99057.88;4883885;29;19950;-70
2022/05/20 15:12:34;;;;;;;;;;;;;;;27.04;45.27;99053.22;4883115;29;19963;-70
2022/05/20 15:15:04;;;;;;;;;;;;;;;26.96;48.25;99054.88;4879288;29;20210;-70
2022/05/20 15:17:31;;;;;;;;;;;;;;;26.87;50.43;99043.47;4866995;29;19956;-70
2022/05/20 15:19:59;;;;;;;;;;;;;;;27.00;46.20;99046.84;4881982;29;19953;-70
2022/05/20 15:22:26;;;;;;;;;;;;;;;26.95;40.43;99047.56;4879523;29;19957;-69
2022/05/20 15:24:53;;;;;;;;;;;;;;;26.90;45.49;99045.38;4882724;29;19951;-70
2022/05/20 15:27:22;;;;;;;;;;;;;;;26.92;42.11;99042.78;4883582;29;19959;-70
2022/05/20 15:29:50;;;;;;;;;;;;;;;26.86;43.68;99033.25;4882939;29;19974;-69
2022/05/20 15:35:04;;;;;;;;;;;;;;;26.73;43.69;99048.63;4883927;29;20001;-70
2022/05/20 15:37:33;;;;;;;;;;;;;;;26.73;45.66;99042.91;4883280;29;20238;-70
2022/05/20 15:40:03;;;;;;;;;;;;;;;26.58;45.44;99049.88;4882911;29;19958;-70
2022/05/20 15:42:30;;;;;;;;;;;;;;;26.56;45.27;99049.56;4883042;29;19955;-70
2022/05/20 15:44:58;;;;;;;;;;;;;;;26.49;42.27;99053.59;4886673;29;19951;-69
2022/05/20 15:47:26;;;;;;;;;;;;;;;26.54;40.03;99052.13;4892635;29;20260;-69
2022/05/20 15:49:53;;;;;;;;;;;;;;;26.42;41.51;99047.41;4883074;29;19968;-70
2022/05/20 15:52:25;;;;;;;;;;;;;;;26.49;39.90;99049.91;4882930;29;19953;-70
2022/05/20 15:54:55;;;;;;;;;;;;;;;26.49;38.41;99044.97;4882906;29;19951;-70
2022/05/20 15:57:23;;;;;;;;;;;;;;;26.45;38.51;99061.59;4882969;29;19948;-70
2022/05/20 15:59:51;;;;;;;;;;;;;;;26.36;35.05;99055.13;4883228;29;19951;-69
2022/05/20 16:02:19;;;;;;;;;;;;;;;26.27;38.22;99050.22;4883512;29;19951;-70
2022/05/20 16:04:47;;;;;;;;;;;;;;;26.21;37.11;99040.69;4883461;29;19979;-70
2022/05/20 16:07:15;;;;;;;;;;;;;;;26.30;35.04;99052.13;4883233;29;19957;-70
2022/05/20 16:09:49;;;;;;;;;;;;;;;26.19;36.38;99040.38;4896066;29;19969;-70
2022/05/20 16:12:19;;;;;;;;;;;;;;;26.22;34.87;99042.28;4901786;29;20238;-70
2022/05/20 16:14:46;;;;;;;;;;;;;;;26.14;34.14;99040.25;4901496;29;19952;-70
2022/05/20 16:17:13;;;;;;;;;;;;;;;26.13;36.38;99038.66;4901243;29;19957;-69
2022/05/20 16:19:40;;;;;;;;;;;;;;;26.03;33.85;99032.16;4901745;29;20023;-70
2022/05/20 16:22:08;;;;;;;;;;;;;;;26.09;33.01;99033.09;4901717;29;19948;-70
2022/05/20 16:24:39;;;;;;;;;;;;;;;25.91;36.88;99022.50;4898695;29;19946;-69
2022/05/20 16:27:07;;;;;;;;;;;;;;;25.92;34.68;99018.34;4882603;29;19950;-69
2022/05/20 16:29:34;;;;;;;;;;;;;;;25.87;37.85;99021.84;4882727;29;19979;-69
2022/05/20 16:32:01;;;;;;;;;;;;;;;25.78;36.17;99015.38;4882671;29;19949;-70
2022/05/20 16:34:29;;;;;;;;;;;;;;;25.69;38.12;99009.69;4876574;29;20362;-69
2022/05/20 16:36:56;;;;;;;;;;;;;;;25.57;38.71;99000.03;4870057;29;19951;-70
2022/05/20 16:39:23;;;;;;;;;;;;;;;25.67;36.08;99013.06;4882883;29;19954;-69
2022/05/20 16:41:50;;;;;;;;;;;;;;;25.64;36.50;98998.88;4882469;29;19951;-70
2022/05/20 16:44:18;;;;;;;;;;;;;;;25.56;37.49;99009.09;4879682;29;19953;-70
2022/05/20 16:46:45;;;;;;;;;;;;;;;25.62;36.34;98992.84;4887354;29;19943;-70
2022/05/20 16:49:16;;;;;;;;;;;;;;;25.55;37.06;98996.06;4886737;29;20263;-70
2022/05/20 16:51:45;;;;;;;;;;;;;;;25.40;37.91;98987.31;4875900;29;20243;-69
2022/05/20 16:54:16;;;;;;;;;;;;;;;25.31;38.22;98982.41;4882958;29;19952;-70
2022/05/20 17:02:19;;;;;;;;;;;;;;;25.17;39.93;98980.22;4875682;29;19958;-70
2022/05/20 17:04:47;;;;;;;;;;;;;;;25.17;39.72;98974.50;4884694;29;19978;-70
2022/05/20 17:07:14;;;;;;;;;;;;;;;25.16;39.93;98975.75;4885598;29;19958;-70
2022/05/20 17:09:42;;;;;;;;;;;;;;;25.11;40.18;98976.44;4885730;29;20247;-70
2022/05/20 17:12:10;;;;;;;;;;;;;;;25.05;39.63;98978.34;4886564;29;20355;-69
2022/05/20 17:14:37;;;;;;;;;;;;;;;25.04;40.62;98978.81;4886154;29;19949;-69
2022/05/20 17:17:07;;;;;;;;;;;;;;;24.97;42.21;98979.13;4887045;29;19949;-69
2022/05/20 17:19:34;;;;;;;;;;;;;;;25.07;39.83;98975.78;4885203;29;19980;-70
2022/05/20 17:24:48;;;;;;;;;;;;;;;25.02;40.47;98978.50;4869407;29;19948;-70
2022/05/20 17:27:16;;;;;;;;;;;;;;;24.85;41.27;98991.53;4872682;29;19949;-70
2022/05/20 17:29:44;;;;;;;;;;;;;;;24.85;41.74;98986.63;4867438;29;19969;-70
2022/05/20 17:32:13;;;;;;;;;;;;;;;24.80;42.17;98982.34;4867315;29;19955;-70
2022/05/20 17:34:41;;;;;;;;;;;;;;;24.72;43.02;98983.88;4875489;29;20275;-70
2022/05/20 17:37:09;;;;;;;;;;;;;;;24.73;42.63;98981.81;4884855;29;19953;-70
2022/05/20 17:39:37;;;;;;;;;;;;;;;24.67;44.53;98980.88;4888184;29;20348;-70
2022/05/20 17:42:05;;;;;;;;;;;;;;;24.60;46.06;98975.50;4864081;29;19964;-70
2022/05/20 17:44:33;;;;;;;;;;;;;;;24.60;44.22;98981.22;4872447;29;20244;-70
2022/05/20 17:47:01;;;;;;;;;;;;;;;24.51;44.46;98998.34;4883029;29;19954;-70
2022/05/20 17:49:29;;;;;;;;;;;;;;;24.45;42.96;98981.03;4866960;29;19965;-70
2022/05/20 17:51:56;;;;;;;;;;;;;;;24.48;42.05;98976.41;4867925;29;20334;-70
2022/05/20 17:54:24;;;;;;;;;;;;;;;24.34;43.68;98989.28;4867878;29;19951;-70
2022/05/20 17:56:51;;;;;;;;;;;;;;;24.27;43.47;98985.94;4885134;29;19951;-70
2022/05/20 17:59:18;;;;;;;;;;;;;;;24.15;44.79;98977.03;4881597;29;20326;-70
2022/05/20 18:01:46;;;;;;;;;;;;;;;24.14;44.05;98988.91;4884974;29;20249;-70
2022/05/20 18:04:13;;;;;;;;;;;;;;;24.09;43.60;98980.97;4883095;29;19947;-70
2022/05/20 18:06:41;;;;;;;;;;;;;;;24.07;43.59;98989.22;4877669;29;19950;-70
2022/05/20 18:09:10;;;;;;;;;;;;;;;23.99;44.48;98982.97;4885082;29;20213;-70
2022/05/20 18:11:37;;;;;;;;;;;;;;;23.93;44.69;98972.66;4868970;29;20346;-70
2022/05/20 18:14:06;;;;;;;;;;;;;;;23.91;45.08;98981.69;4884761;29;19950;-69
2022/05/20 18:16:33;;;;;;;;;;;;;;;23.90;44.23;98977.25;4885487;29;19944;-69
2022/05/20 18:19:01;;;;;;;;;;;;;;;23.87;43.38;98974.53;4885105;29;19946;-70
2022/05/20 18:21:28;;;;;;;;;;;;;;;23.80;43.02;98977.69;4877890;29;19957;-70
2022/05/20 18:24:00;;;;;;;;;;;;;;;23.80;43.69;98972.75;4866342;29;19957;-70
2022/05/20 18:26:29;;;;;;;;;;;;;;;23.70;44.00;98965.44;4881977;29;19952;-70
2022/05/20 18:28:57;;;;;;;;;;;;;;;23.71;43.33;98967.03;4865081;29;19956;-69
2022/05/20 18:31:24;;;;;;;;;;;;;;;23.63;44.57;98976.34;4866084;29;20265;-70
2022/05/20 18:33:51;;;;;;;;;;;;;;;23.60;43.09;98971.59;4873952;29;19959;-69
2022/05/20 18:39:18;;;;;;;;;;;;;;;23.43;45.33;98968.97;4884812;29;19955;-70
2022/05/20 18:41:47;;;;;;;;;;;;;;;23.40;45.42;98974.84;4882792;29;19947;-70